Time;durP1;ratioP1;P1;durP2;ratioP2;P2;SDS_P1;SDS_P2;PMS_P1;PMS_P2;Temp;Humidity;BMP_temperature;BMP_pressure;BME280_temperature;BME280_humidity;BME280_pressure;Samples;Min_cycle;Max_cycle;Signal;HPM_P1;HPM_P2
2022/08/15 00:00:21;;;;;;;5.75;4.38;;;;;;;22.08;44.47;98232.59;5072439;28;20028;-58
2022/08/15 00:02:47;;;;;;;11.57;4.05;;;;;;;21.90;44.65;98236.72;5072157;28;20378;-57
2022/08/15 00:05:15;;;;;;;8.60;4.30;;;;;;;21.98;45.26;98238.53;5079992;28;20051;-57
2022/08/15 00:07:41;;;;;;;8.48;4.00;;;;;;;22.03;45.19;98235.56;5054687;28;20021;-58
2022/08/15 00:10:07;;;;;;;5.75;4.10;;;;;;;22.17;45.17;98233.28;5072384;28;20028;-57
2022/08/15 00:12:34;;;;;;;8.75;4.03;;;;;;;22.37;45.19;98242.50;5072528;28;20025;-56
2022/08/15 00:15:00;;;;;;;9.60;4.03;;;;;;;22.43;45.50;98237.59;5072471;28;20025;-56
2022/08/15 00:17:25;;;;;;;7.43;3.70;;;;;;;22.51;45.90;98244.03;5071995;28;20047;-56
2022/08/15 00:19:50;;;;;;;8.88;4.10;;;;;;;22.44;46.75;98243.84;5070580;28;20029;-57
2022/08/15 00:22:19;;;;;;;8.15;4.07;;;;;;;22.43;46.82;98234.84;5072412;28;20024;-57
2022/08/15 00:24:47;;;;;;;12.27;4.20;;;;;;;22.37;47.59;98236.25;5072536;28;20158;-54
2022/08/15 00:27:12;;;;;;;9.15;3.92;;;;;;;22.28;48.18;98241.03;5072270;28;20030;-56
2022/08/15 00:29:37;;;;;;;7.57;3.70;;;;;;;22.35;47.94;98235.78;5071885;28;20036;-56
2022/08/15 00:32:16;;;;;;;15.40;4.32;;;;;;;22.60;47.51;98241.97;5072111;28;20028;-56
2022/08/15 00:34:42;;;;;;;9.85;3.58;;;;;;;22.64;47.48;98231.16;5072050;28;20040;-57
2022/08/15 00:37:07;;;;;;;7.80;4.03;;;;;;;22.74;46.98;98231.47;5072240;28;20115;-56
2022/08/15 00:39:32;;;;;;;6.68;4.47;;;;;;;22.71;47.39;98231.34;5071743;28;20035;-56
2022/08/15 00:41:58;;;;;;;11.38;3.97;;;;;;;22.72;47.41;98232.97;5071975;28;20020;-57
2022/08/15 00:44:34;;;;;;;9.70;4.20;;;;;;;22.79;46.96;98233.97;5070811;28;20035;-57
2022/08/15 00:47:05;;;;;;;8.15;4.05;;;;;;;22.73;47.19;98231.81;5072042;28;20070;-57
2022/08/15 00:49:31;;;;;;;11.98;4.10;;;;;;;22.60;47.15;98231.06;5071418;28;20482;-57
2022/08/15 00:52:01;;;;;;;9.68;4.00;;;;;;;22.55;47.37;98215.72;5076660;28;20546;-57
2022/08/15 00:54:34;;;;;;;8.25;4.10;;;;;;;22.52;47.87;98216.41;5058124;28;20028;-57
2022/08/15 00:57:06;;;;;;;8.48;4.07;;;;;;;22.33;48.24;98210.78;5072102;28;20025;-57
2022/08/15 00:59:34;;;;;;;6.78;4.13;;;;;;;22.32;48.09;98209.19;5078290;28;20047;-57
2022/08/15 01:02:01;;;;;;;9.57;3.90;;;;;;;22.41;47.69;98207.09;5070531;28;20459;-57
2022/08/15 01:04:27;;;;;;;10.15;3.97;;;;;;;22.32;47.69;98198.28;5070923;28;20426;-57
2022/08/15 01:06:53;;;;;;;10.52;3.95;;;;;;;22.11;48.53;98192.94;5071893;28;20486;-56
2022/08/15 01:09:18;;;;;;;7.10;3.65;;;;;;;22.00;48.29;98197.28;5074759;28;20032;-57
2022/08/15 01:11:56;;;;;;;7.22;4.10;;;;;;;22.27;48.05;98201.25;5070452;28;20028;-57
2022/08/15 01:14:22;;;;;;;8.10;4.22;;;;;;;22.39;46.62;98193.03;5057792;28;20112;-56
2022/08/15 01:16:47;;;;;;;7.60;4.00;;;;;;;22.45;46.93;98197.09;5075933;28;20103;-57
2022/08/15 01:19:19;;;;;;;7.68;3.78;;;;;;;22.56;46.57;98195.44;5076724;28;20027;-57
2022/08/15 01:22:17;;;;;;;6.53;3.92;;;;;;;22.45;46.61;98194.34;5076323;28;20375;-57
2022/08/15 01:24:45;;;;;;;7.50;3.88;;;;;;;22.34;47.04;98195.97;5074586;28;20029;-57
2022/08/15 01:27:11;;;;;;;7.78;4.32;;;;;;;22.25;47.24;98198.06;5074157;28;20111;-57
2022/08/15 01:29:36;;;;;;;9.57;4.32;;;;;;;22.15;47.56;98202.03;5073747;28;20040;-57
2022/08/15 01:32:02;;;;;;;14.68;4.50;;;;;;;22.14;47.12;98203.97;5074361;28;20025;-57
2022/08/15 01:34:28;;;;;;;11.73;4.22;;;;;;;22.18;46.73;98204.84;5075005;28;20020;-57
2022/08/15 01:36:53;;;;;;;9.35;4.10;;;;;;;22.13;47.70;98205.09;5075038;28;20064;-57
2022/08/15 01:39:42;;;;;;;8.88;4.20;;;;;;;22.22;46.52;98198.75;5075395;28;20070;-56
2022/08/15 01:42:10;;;;;;;9.48;3.97;;;;;;;22.28;46.74;98197.38;5074004;28;20031;-56
2022/08/15 01:44:52;;;;;;;7.90;4.20;;;;;;;22.34;46.51;98202.25;5059205;28;20028;-57
2022/08/15 01:47:35;;;;;;;8.50;4.10;;;;;;;22.41;46.17;98207.09;5080802;28;20016;-57
2022/08/15 01:50:08;;;;;;;6.65;4.20;;;;;;;22.44;45.90;98211.88;5078912;28;20471;-57
2022/08/15 01:52:46;;;;;;;12.07;4.40;;;;;;;22.40;46.20;98210.97;5073914;28;20032;-57
2022/08/15 01:55:12;;;;;;;8.57;3.90;;;;;;;22.37;46.37;98211.69;5058727;28;20032;-56
2022/08/15 01:57:37;;;;;;;8.55;4.10;;;;;;;22.07;47.46;98220.13;5073812;28;20046;-56
2022/08/15 02:00:04;;;;;;;11.82;4.50;;;;;;;22.03;47.37;98219.19;5074768;28;20028;-56
2022/08/15 02:02:29;;;;;;;9.27;4.10;;;;;;;22.13;47.01;98217.94;5074743;28;20043;-57
2022/08/15 02:04:55;;;;;;;9.32;4.10;;;;;;;22.11;47.23;98210.09;5065285;28;20036;-56
2022/08/15 02:07:25;;;;;;;11.27;4.10;;;;;;;22.13;47.00;98212.47;5074609;28;20147;-56
2022/08/15 02:09:51;;;;;;;7.13;3.95;;;;;;;22.09;47.37;98209.66;5082242;28;20030;-56
2022/08/15 02:12:19;;;;;;;7.97;4.40;;;;;;;22.06;47.74;98218.50;5074963;28;20025;-56
2022/08/15 02:14:44;;;;;;;5.97;3.90;;;;;;;22.04;47.22;98217.25;5074534;28;20052;-56
2022/08/15 02:17:10;;;;;;;7.80;4.20;;;;;;;21.98;48.19;98219.44;5074548;28;20502;-55
2022/08/15 02:19:39;;;;;;;13.60;4.50;;;;;;;22.10;47.71;98218.63;5074057;28;20042;-56
2022/08/15 02:22:05;;;;;;;12.40;4.18;;;;;;;22.04;47.71;98214.53;5074408;28;20103;-56
2022/08/15 02:24:31;;;;;;;8.07;3.90;;;;;;;21.89;48.32;98218.75;5074398;28;20040;-58
2022/08/15 02:26:56;;;;;;;7.05;3.75;;;;;;;21.84;48.65;98224.44;5073434;28;20013;-56
2022/08/15 02:29:23;;;;;;;12.52;4.53;;;;;;;21.87;48.79;98218.31;5074167;28;20077;-55
2022/08/15 02:31:51;;;;;;;9.75;3.90;;;;;;;21.89;48.96;98218.75;5074523;28;20028;-56
2022/08/15 02:34:17;;;;;;;10.20;4.03;;;;;;;21.79;49.14;98220.03;5041807;28;20111;-58
2022/08/15 02:36:42;;;;;;;9.05;3.97;;;;;;;21.92;49.06;98218.09;5074258;28;20031;-57
2022/08/15 02:39:09;;;;;;;9.60;4.03;;;;;;;21.95;49.28;98222.84;5073199;28;20371;-57
2022/08/15 02:41:37;;;;;;;11.88;4.05;;;;;;;21.89;50.04;98216.03;5073035;28;20029;-57
2022/08/15 02:44:02;;;;;;;9.65;4.32;;;;;;;21.64;51.32;98218.78;5079675;28;20581;-57
2022/08/15 02:46:29;;;;;;;9.32;4.35;;;;;;;21.50;52.72;98221.03;5073760;28;20103;-56
2022/08/15 02:48:55;;;;;;;9.32;4.13;;;;;;;21.46;53.23;98211.91;5073861;28;20035;-57
2022/08/15 02:51:21;;;;;;;8.18;4.15;;;;;;;21.36;53.65;98215.06;5072275;28;20017;-56
2022/08/15 02:53:48;;;;;;;7.45;4.43;;;;;;;21.25;54.39;98207.31;5074370;28;20028;-56
2022/08/15 02:56:16;;;;;;;11.80;4.60;;;;;;;21.21;54.76;98206.41;5073877;28;20025;-56
2022/08/15 02:58:41;;;;;;;6.45;4.20;;;;;;;21.16;54.84;98212.06;5073853;28;20029;-56
2022/08/15 03:01:10;;;;;;;12.05;4.10;;;;;;;21.07;55.68;98214.09;5073712;28;20028;-57
2022/08/15 03:03:39;;;;;;;11.50;4.38;;;;;;;21.01;56.24;98209.97;5073622;28;20033;-56
2022/08/15 03:06:10;;;;;;;9.93;4.18;;;;;;;21.00;56.38;98200.22;5072852;28;20530;-56
2022/08/15 03:08:36;;;;;;;9.15;4.43;;;;;;;20.86;56.98;98198.56;5073507;28;20054;-57
2022/08/15 03:11:06;;;;;;;7.72;3.85;;;;;;;20.86;57.17;98195.84;5079263;28;20475;-57
2022/08/15 03:13:31;;;;;;;9.13;4.37;;;;;;;20.69;57.76;98193.28;5073522;28;20024;-57
2022/08/15 03:15:57;;;;;;;8.45;4.25;;;;;;;20.58;58.28;98192.13;5073717;28;20047;-56
2022/08/15 03:18:23;;;;;;;9.90;4.63;;;;;;;20.53;58.48;98192.31;5073374;28;20804;-57
2022/08/15 03:20:49;;;;;;;12.25;4.38;;;;;;;20.46;58.87;98193.63;5086175;28;20024;-57
2022/08/15 03:23:15;;;;;;;10.02;4.60;;;;;;;20.57;58.41;98196.00;5073264;28;20072;-56
2022/08/15 03:25:42;;;;;;;8.00;4.20;;;;;;;20.49;58.91;98197.59;5076072;28;20023;-56
2022/08/15 03:28:08;;;;;;;10.40;4.75;;;;;;;20.56;58.49;98199.81;5071944;28;20024;-56
2022/08/15 03:30:33;;;;;;;13.48;4.45;;;;;;;20.54;58.55;98200.13;5071648;28;20024;-56
2022/08/15 03:32:59;;;;;;;13.48;4.75;;;;;;;20.48;59.13;98213.13;5073512;28;20032;-56
2022/08/15 03:35:27;;;;;;;12.88;4.80;;;;;;;20.36;59.54;98204.91;5071041;28;20429;-56
2022/08/15 03:37:52;;;;;;;8.85;4.70;;;;;;;20.28;60.16;98207.69;5072537;28;20420;-56
2022/08/15 03:40:17;;;;;;;9.57;4.50;;;;;;;20.26;59.91;98206.09;5073097;28;20032;-56
2022/08/15 03:42:54;;;;;;;10.52;4.68;;;;;;;20.33;59.62;98204.78;5072869;28;20411;-56
2022/08/15 03:45:20;;;;;;;11.32;5.13;;;;;;;20.31;59.82;98204.31;5072878;28;20028;-57
2022/08/15 03:47:45;;;;;;;11.13;4.82;;;;;;;20.33;60.48;98213.75;5072781;28;20533;-56
2022/08/15 03:50:13;;;;;;;10.88;5.18;;;;;;;20.36;61.03;98209.56;5076959;28;20036;-57
2022/08/15 03:53:08;;;;;;;9.48;4.90;;;;;;;20.31;61.80;98207.81;5072922;28;20187;-57
2022/08/15 03:55:35;;;;;;;10.80;5.80;;;;;;;20.32;62.77;98209.44;5072687;28;20166;-56
2022/08/15 03:58:00;;;;;;;10.30;4.95;;;;;;;20.44;62.56;98214.94;5085708;28;20029;-57
2022/08/15 04:00:28;;;;;;;11.85;5.25;;;;;;;20.31;63.74;98213.25;5072846;28;20047;-57
2022/08/15 04:03:06;;;;;;;11.48;5.03;;;;;;;20.90;61.66;98221.28;5073489;28;20056;-57
2022/08/15 04:05:31;;;;;;;11.20;4.85;;;;;;;21.15;60.60;98228.75;5083227;28;20044;-58
2022/08/15 04:07:56;;;;;;;12.95;5.72;;;;;;;20.65;64.21;98222.34;5071011;28;20074;-58
2022/08/15 04:10:22;;;;;;;10.18;5.20;;;;;;;20.68;64.34;98221.66;5075554;28;20028;-58
2022/08/15 04:12:48;;;;;;;9.43;5.35;;;;;;;20.43;65.98;98221.50;5076269;28;20024;-58
2022/08/15 04:15:14;;;;;;;12.30;5.60;;;;;;;20.32;67.30;98224.94;5074735;28;20032;-57
2022/08/15 04:17:39;;;;;;;13.40;5.70;;;;;;;20.33;67.89;98227.34;5072387;28;20125;-58
2022/08/15 04:20:07;;;;;;;10.40;5.97;;;;;;;20.34;68.09;98220.75;5071746;28;20479;-56
2022/08/15 04:22:44;;;;;;;11.38;5.45;;;;;;;20.38;68.50;98227.16;5076975;28;20025;-59
2022/08/15 04:25:09;;;;;;;10.45;5.68;;;;;;;20.39;68.65;98228.75;5071689;28;20036;-57
2022/08/15 04:27:35;;;;;;;15.32;5.57;;;;;;;20.32;68.81;98236.66;5081495;28;20051;-58
2022/08/15 04:30:01;;;;;;;13.65;5.45;;;;;;;20.37;69.06;98241.88;5081350;28;20060;-59
2022/08/15 04:32:27;;;;;;;12.13;6.45;;;;;;;20.44;68.56;98239.44;5074558;28;20335;-59
2022/08/15 04:34:53;;;;;;;16.75;6.20;;;;;;;20.40;69.17;98241.22;5087819;28;20032;-57
2022/08/15 04:37:18;;;;;;;11.90;5.53;;;;;;;20.40;68.88;98243.94;5074949;28;20076;-57
2022/08/15 04:39:44;;;;;;;11.18;5.47;;;;;;;20.40;68.98;98243.94;5085499;28;20028;-57
2022/08/15 04:42:09;;;;;;;14.88;5.60;;;;;;;20.41;69.24;98242.81;5072095;28;20024;-59
2022/08/15 04:44:39;;;;;;;12.95;5.45;;;;;;;20.35;69.79;98240.63;5077344;28;20020;-57
2022/08/15 04:47:05;;;;;;;;;;;;;;;20.40;69.14;98248.59;5072377;28;21613;-57
2022/08/15 04:49:34;;;;;;;9.52;5.57;;;;;;;20.34;69.52;98236.28;5071489;28;19916;-59
2022/08/15 04:52:11;;;;;;;13.10;6.28;;;;;;;20.46;69.18;98245.31;5078865;28;20021;-58
2022/08/15 04:54:36;;;;;;;15.95;6.22;;;;;;;20.63;68.25;98243.63;5076475;28;20382;-58
2022/08/15 04:57:02;;;;;;;15.45;5.80;;;;;;;20.64;67.64;98245.22;5071593;28;20025;-59
2022/08/15 04:59:27;;;;;;;14.10;6.43;;;;;;;20.76;68.25;98249.94;5070527;28;20034;-57
2022/08/15 05:01:53;;;;;;;13.93;5.60;;;;;;;20.76;68.39;98250.72;5079058;28;20024;-59
2022/08/15 05:04:19;;;;;;;14.45;5.97;;;;;;;20.73;68.13;98256.84;5074280;28;20024;-58
2022/08/15 05:06:45;;;;;;;12.70;5.85;;;;;;;20.74;68.26;98252.97;5071942;28;20029;-58
2022/08/15 05:09:10;;;;;;;14.68;5.78;;;;;;;20.85;67.38;98259.63;5072093;28;20082;-58
2022/08/15 05:11:36;;;;;;;11.90;5.85;;;;;;;20.94;67.11;98264.19;5076929;28;20493;-56
2022/08/15 05:14:02;;;;;;;12.88;5.78;;;;;;;20.83;66.95;98253.72;5077712;28;20420;-57
2022/08/15 05:16:27;;;;;;;14.82;6.05;;;;;;;20.82;67.71;98252.13;5071508;28;20028;-57
2022/08/15 05:18:53;;;;;;;20.05;6.18;;;;;;;21.16;66.61;98261.09;5071684;28;20028;-57
2022/08/15 05:21:18;;;;;;;9.07;5.30;;;;;;;21.25;66.14;98261.81;5071222;28;20354;-57
2022/08/15 05:23:44;;;;;;;10.18;5.88;;;;;;;21.31;65.89;98254.22;5074614;28;20036;-56
2022/08/15 05:26:09;;;;;;;13.63;5.80;;;;;;;21.12;66.41;98257.47;5073350;28;20122;-57
2022/08/15 05:28:35;;;;;;;13.48;6.20;;;;;;;21.06;66.72;98266.97;5076066;28;20044;-56
2022/08/15 05:31:02;;;;;;;14.02;6.00;;;;;;;21.07;66.61;98258.47;5071511;28;20029;-57
2022/08/15 05:33:28;;;;;;;9.68;5.57;;;;;;;21.15;66.25;98256.00;5071408;28;20032;-57
2022/08/15 05:35:56;;;;;;;22.13;5.95;;;;;;;21.27;65.86;98262.28;5078113;28;20020;-58
2022/08/15 05:38:26;;;;;;;12.95;5.68;;;;;;;21.29;65.99;98259.19;5071453;28;20029;-59
2022/08/15 05:40:58;;;;;;;12.73;6.10;;;;;;;21.22;66.17;98262.50;5079817;28;20098;-57
2022/08/15 05:43:44;;;;;;;12.10;6.05;;;;;;;21.31;65.71;98265.91;5073940;28;20035;-58
2022/08/15 05:46:40;;;;;;;18.73;6.35;;;;;;;21.26;65.82;98262.59;5071277;28;20533;-58
2022/08/15 05:49:33;;;;;;;11.57;6.10;;;;;;;21.26;66.08;98266.13;5057067;28;20122;-58
2022/08/15 05:52:30;;;;;;;17.05;6.35;;;;;;;21.37;65.85;98262.97;5074156;28;20036;-58
2022/08/15 05:55:33;;;;;;;9.35;5.60;;;;;;;21.97;63.27;98261.50;5079598;28;20033;-57
2022/08/15 05:58:20;;;;;;;14.23;5.57;;;;;;;21.62;63.81;98270.13;5070167;28;20109;-57
2022/08/15 06:00:48;;;;;;;15.20;5.25;;;;;;;21.52;64.41;98268.63;5081379;28;20505;-57
2022/08/15 06:03:24;;;;;;;10.57;5.82;;;;;;;21.26;65.26;98268.84;5045691;28;20028;-57
2022/08/15 06:05:51;;;;;;;11.38;5.50;;;;;;;21.27;65.46;98264.22;5079122;28;20085;-57
2022/08/15 06:08:19;;;;;;;14.30;6.32;;;;;;;21.03;66.20;98273.88;5074466;28;20020;-57
2022/08/15 06:11:11;;;;;;;15.98;6.38;;;;;;;21.25;64.94;98278.16;5074848;28;20040;-57
2022/08/15 06:13:49;;;;;;;12.80;6.00;;;;;;;21.10;65.09;98284.25;5074516;28;20027;-57
2022/08/15 06:16:37;;;;;;;11.30;5.45;;;;;;;20.99;66.03;98280.34;5073697;28;20036;-57
2022/08/15 06:19:19;;;;;;;10.93;6.20;;;;;;;21.05;65.09;98282.53;5073527;28;20074;-58
2022/08/15 06:21:50;;;;;;;11.48;5.88;;;;;;;21.15;65.18;98285.97;5073144;28;20100;-57
2022/08/15 06:24:21;;;;;;;15.80;6.22;;;;;;;21.14;65.79;98281.63;5073648;28;20032;-57
2022/08/15 06:26:59;;;;;;;11.02;6.03;;;;;;;20.94;66.76;98283.25;5074311;28;20028;-58
2022/08/15 06:29:32;;;;;;;12.32;6.30;;;;;;;20.81;67.35;98279.69;5081543;28;20047;-58
2022/08/15 06:32:03;;;;;;;19.25;6.20;;;;;;;20.82;67.55;98292.97;5072906;28;20032;-57
2022/08/15 06:34:31;;;;;;;13.18;5.95;;;;;;;20.90;67.26;98283.94;5073764;28;20056;-57
2022/08/15 06:37:19;;;;;;;14.13;6.22;;;;;;;20.75;68.36;98291.91;5080714;28;20085;-57
2022/08/15 06:39:57;;;;;;;14.10;6.40;;;;;;;20.87;67.66;98290.06;5078286;28;20029;-57
2022/08/15 06:42:54;;;;;;;12.55;6.20;;;;;;;21.42;66.21;98295.53;5074730;28;20043;-57
2022/08/15 06:45:38;;;;;;;17.65;5.97;;;;;;;21.67;65.17;98288.97;5073317;28;20499;-57
2022/08/15 06:48:08;;;;;;;13.00;6.28;;;;;;;24.24;56.64;98283.81;5073944;28;20028;-58
2022/08/15 06:50:37;;;;;;;12.27;5.10;;;;;;;26.33;50.28;98294.84;5072314;28;20360;-58
2022/08/15 06:53:14;;;;;;;10.37;5.40;;;;;;;26.40;49.36;98292.22;5082943;28;20055;-57
2022/08/15 06:56:06;;;;;;;12.73;6.13;;;;;;;25.60;51.72;98300.31;5072682;28;20035;-57
2022/08/15 06:58:37;;;;;;;10.82;5.60;;;;;;;26.24;49.59;98297.09;5067781;28;20036;-57
2022/08/15 07:01:28;;;;;;;11.65;5.40;;;;;;;25.67;50.32;98290.63;5072490;28;20031;-57
2022/08/15 07:04:13;;;;;;;14.27;6.22;;;;;;;24.82;51.99;98274.91;5073347;28;20373;-57
2022/08/15 07:07:01;;;;;;;8.13;4.93;;;;;;;24.72;52.68;98283.69;5072886;28;20037;-57
2022/08/15 07:09:39;;;;;;;10.88;5.38;;;;;;;24.32;52.62;98285.53;5062602;28;20044;-57
2022/08/15 07:12:10;;;;;;;10.10;5.15;;;;;;;23.79;53.94;98293.28;5072477;28;20044;-57
2022/08/15 07:14:41;;;;;;;12.30;5.40;;;;;;;23.69;54.59;98285.56;5073563;28;20111;-57
2022/08/15 07:17:23;;;;;;;17.05;5.95;;;;;;;23.53;54.71;98288.28;5073421;28;20020;-57
2022/08/15 07:19:49;;;;;;;8.93;5.70;;;;;;;23.35;55.09;98296.00;5071531;28;20119;-57
2022/08/15 07:22:14;;;;;;;12.73;5.68;;;;;;;23.35;55.29;98296.00;5072313;28;20048;-57
2022/08/15 07:24:49;;;;;;;11.63;5.72;;;;;;;23.15;56.04;98294.28;5072082;28;20020;-57
2022/08/15 07:27:15;;;;;;;14.45;5.95;;;;;;;22.85;57.21;98296.53;5073371;28;20097;-56
2022/08/15 07:29:43;;;;;;;10.07;5.05;;;;;;;23.36;55.83;98296.81;5072879;28;20475;-57
2022/08/15 07:32:31;;;;;;;9.18;5.72;;;;;;;23.03;56.46;98293.19;5073245;28;20078;-57
2022/08/15 07:35:05;;;;;;;11.30;5.97;;;;;;;22.67;57.88;98302.28;5072947;28;20035;-57
2022/08/15 07:37:33;;;;;;;14.65;5.75;;;;;;;22.75;57.62;98298.59;5071672;28;20530;-57
2022/08/15 07:40:02;;;;;;;16.55;5.43;;;;;;;22.59;58.47;98301.28;5071544;28;20032;-57
2022/08/15 07:42:28;;;;;;;11.68;5.90;;;;;;;22.52;58.99;98300.25;5074624;28;20024;-57
2022/08/15 07:44:57;;;;;;;9.73;5.68;;;;;;;22.51;59.24;98310.38;5072819;28;20390;-57
2022/08/15 07:47:28;;;;;;;10.35;6.13;;;;;;;22.16;60.62;98310.03;5073062;28;20029;-57
2022/08/15 07:50:12;;;;;;;19.30;7.60;;;;;;;22.10;61.05;98306.72;5075946;28;20528;-57
2022/08/15 07:52:38;;;;;;;15.25;5.85;;;;;;;22.36;59.84;98311.84;5072711;28;20415;-57
2022/08/15 07:55:20;;;;;;;12.60;5.45;;;;;;;22.74;59.28;98299.75;5072620;28;20107;-57
2022/08/15 07:58:18;;;;;;;18.63;6.28;;;;;;;22.54;59.85;98308.88;5072806;28;20098;-57
2022/08/15 08:00:52;;;;;;;11.15;5.82;;;;;;;22.50;59.61;98306.06;5069792;28;20047;-57
2022/08/15 08:03:25;;;;;;;13.55;6.00;;;;;;;22.79;58.87;98304.19;5082620;28;20067;-57
2022/08/15 08:06:02;;;;;;;14.85;6.20;;;;;;;22.67;59.45;98312.41;5071347;28;20055;-57
2022/08/15 08:08:50;;;;;;;10.93;6.03;;;;;;;22.40;60.56;98298.34;5071269;28;20063;-57
2022/08/15 08:11:33;;;;;;;9.40;6.05;;;;;;;22.44;61.37;98310.16;5071055;28;20028;-57
2022/08/15 08:14:11;;;;;;;16.15;6.20;;;;;;;22.18;62.64;98302.28;5072477;28;20028;-58
2022/08/15 08:16:43;;;;;;;13.07;6.28;;;;;;;21.89;64.07;98311.47;5071391;28;20020;-57
2022/08/15 08:19:28;;;;;;;14.23;5.75;;;;;;;22.29;62.44;98314.38;5070877;28;20528;-58
2022/08/15 08:22:11;;;;;;;12.00;5.88;;;;;;;22.15;63.14;98314.69;5078595;28;20045;-57
2022/08/15 08:25:11;;;;;;;18.70;6.47;;;;;;;22.08;63.45;98303.53;5076935;28;20391;-57
2022/08/15 08:27:52;;;;;;;12.60;6.47;;;;;;;21.89;64.19;98325.13;5072767;28;20020;-57
2022/08/15 08:30:22;;;;;;;12.75;6.18;;;;;;;21.64;64.87;98332.47;5072237;28;20041;-57
2022/08/15 08:32:52;;;;;;;18.08;6.50;;;;;;;21.49;65.68;98333.91;5070921;28;20581;-57
2022/08/15 08:35:38;;;;;;;11.07;5.88;;;;;;;21.36;65.60;98330.31;5071457;28;20032;-58
2022/08/15 08:38:19;;;;;;;10.90;6.18;;;;;;;21.36;66.38;98329.53;5072069;28;20111;-57
2022/08/15 08:44:06;;;;;;;10.48;6.45;;;;;;;20.70;70.71;98339.19;5073130;28;20090;-57
2022/08/15 08:46:59;;;;;;;12.35;6.85;;;;;;;20.95;69.79;98336.63;5058414;28;20032;-57
2022/08/15 08:49:40;;;;;;;10.35;6.32;;;;;;;21.00;70.11;98339.13;5071178;28;20032;-57
2022/08/15 08:52:20;;;;;;;16.45;7.20;;;;;;;20.77;71.18;98341.41;5074098;28;20076;-57
2022/08/15 08:55:01;;;;;;;14.05;7.00;;;;;;;20.05;74.34;98349.44;5055087;28;20028;-58
2022/08/15 08:57:36;;;;;;;10.52;6.60;;;;;;;20.29;73.64;98346.13;5071959;28;20031;-57
2022/08/15 09:00:10;;;;;;;18.48;7.68;;;;;;;20.12;74.49;98346.19;5071413;28;20033;-57
2022/08/15 09:02:41;;;;;;;12.25;7.40;;;;;;;20.32;73.98;98345.47;5077327;28;20032;-57
2022/08/15 09:05:25;;;;;;;11.65;7.25;;;;;;;20.54;72.86;98347.09;5068720;28;20521;-58
2022/08/15 09:07:53;;;;;;;16.08;8.32;;;;;;;20.66;72.29;98349.94;5055270;28;20537;-57
2022/08/15 09:10:32;;;;;;;22.20;6.85;;;;;;;21.04;70.67;98350.94;5070338;28;20028;-57
2022/08/15 09:15:42;;;;;;;19.63;7.57;;;;;;;20.55;74.05;98353.41;5056386;28;20074;-57
2022/08/15 09:18:10;;;;;;;16.92;7.88;;;;;;;20.90;72.39;98360.19;5071010;28;20041;-57
2022/08/15 09:20:39;;;;;;;14.30;8.05;;;;;;;20.87;73.19;98363.59;5055274;28;20112;-58
2022/08/15 09:23:11;;;;;;;17.02;7.53;;;;;;;20.86;73.91;98364.69;5073056;28;20108;-57
2022/08/15 09:25:43;;;;;;;17.38;7.75;;;;;;;20.75;74.02;98371.69;5071722;28;20040;-57
2022/08/15 09:28:40;;;;;;;13.43;7.32;;;;;;;20.73;74.29;98363.03;5071296;28;20375;-57
2022/08/15 09:31:25;;;;;;;16.90;7.88;;;;;;;20.34;75.73;98361.47;5068065;28;20043;-57
2022/08/15 09:34:12;;;;;;;18.17;8.15;;;;;;;20.41;75.65;98367.97;5070304;28;20055;-58
2022/08/15 09:37:00;;;;;;;12.95;8.10;;;;;;;20.52;75.33;98362.97;5073441;28;20028;-57
2022/08/15 09:39:28;;;;;;;16.77;7.50;;;;;;;20.68;74.81;98368.66;5075365;28;20036;-57
2022/08/15 09:42:21;;;;;;;14.27;8.00;;;;;;;20.87;73.66;98370.97;5074162;28;20538;-58
2022/08/15 09:44:49;;;;;;;16.58;7.95;;;;;;;21.21;72.23;98369.09;5074984;28;20066;-58
2022/08/15 09:47:37;;;;;;;13.77;8.15;;;;;;;21.11;73.84;98364.84;5075288;28;20029;-58
2022/08/15 09:50:27;;;;;;;14.00;7.63;;;;;;;21.04;74.30;98370.00;5071583;28;20036;-57
2022/08/15 09:52:52;;;;;;;;;;;;;;;20.82;74.61;98374.69;5075712;28;20048;-57
2022/08/15 09:55:28;;;;;;;15.73;8.82;;;;;;;20.77;75.63;98366.69;5074928;28;20370;-57
2022/08/15 09:57:56;;;;;;;15.10;8.15;;;;;;;20.73;76.73;98376.66;5078197;28;20107;-58
2022/08/15 10:00:21;;;;;;;19.92;10.70;;;;;;;21.17;75.04;98379.88;5061111;28;20056;-57
2022/08/15 10:02:49;;;;;;;20.83;10.23;;;;;;;20.68;77.97;98374.13;5078077;28;20481;-58
2022/08/15 10:05:23;;;;;;;21.20;10.57;;;;;;;19.76;83.38;98377.34;5074131;28;20040;-57
2022/08/15 10:07:54;;;;;;;21.05;10.48;;;;;;;20.65;78.06;98375.56;5080519;28;20029;-58
2022/08/15 10:10:21;;;;;;;23.70;11.40;;;;;;;21.30;74.67;98378.78;5073378;28;20031;-58
2022/08/15 10:13:08;;;;;;;17.05;9.18;;;;;;;20.64;77.62;98379.44;5066163;28;20044;-58
2022/08/15 10:15:41;;;;;;;18.60;10.48;;;;;;;21.01;75.81;98374.19;5074611;28;20063;-57
2022/08/15 10:18:22;;;;;;;15.98;8.38;;;;;;;21.26;74.64;98371.59;5074006;28;20020;-57
2022/08/15 10:21:20;;;;;;;19.02;9.60;;;;;;;21.67;73.02;98372.72;5074247;28;20050;-57
2022/08/15 10:23:49;;;;;;;18.08;9.43;;;;;;;21.92;71.65;98366.19;5074593;28;20430;-57
2022/08/15 10:26:24;;;;;;;20.10;8.18;;;;;;;21.65;72.44;98369.53;5081183;28;20163;-57
2022/08/15 10:29:08;;;;;;;15.23;7.30;;;;;;;21.94;70.88;98363.91;5074691;28;20115;-57
2022/08/15 10:31:53;;;;;;;18.45;8.40;;;;;;;22.15;69.63;98363.03;5073041;28;20111;-57
2022/08/15 10:34:35;;;;;;;20.75;7.45;;;;;;;22.25;68.92;98370.00;5073100;28;20125;-60
2022/08/15 10:37:21;;;;;;;15.10;7.40;;;;;;;22.51;68.05;98375.91;5074562;28;20020;-58
2022/08/15 10:39:47;;;;;;;10.80;6.93;;;;;;;22.38;67.54;98366.13;5073693;28;20078;-56
2022/08/15 10:42:20;;;;;;;13.27;6.63;;;;;;;22.28;67.85;98375.56;5074073;28;20386;-57
2022/08/15 10:44:56;;;;;;;17.48;6.72;;;;;;;22.13;68.14;98376.19;5082470;28;20494;-56
2022/08/15 10:47:32;;;;;;;11.05;6.63;;;;;;;21.37;69.53;98377.44;5079916;28;20047;-56
2022/08/15 10:50:03;;;;;;;13.95;6.60;;;;;;;21.82;68.50;98376.72;5072631;28;20044;-58
2022/08/15 10:53:07;;;;;;;13.30;6.85;;;;;;;21.13;70.55;98378.94;5083482;28;20024;-58
2022/08/15 10:55:36;;;;;;;11.93;6.75;;;;;;;21.43;70.05;98376.94;5075347;28;20047;-57
2022/08/15 10:58:23;;;;;;;17.30;6.50;;;;;;;22.02;67.47;98378.59;5076937;28;20399;-58
2022/08/15 11:00:53;;;;;;;13.60;6.80;;;;;;;22.18;67.14;98381.44;5074025;28;20032;-57
2022/08/15 11:03:41;;;;;;;17.02;7.35;;;;;;;21.85;67.84;98376.06;5080946;28;20470;-57
2022/08/15 11:06:08;;;;;;;10.90;6.03;;;;;;;22.22;66.15;98368.75;5071655;28;20407;-57
2022/08/15 11:08:35;;;;;;;11.63;6.03;;;;;;;22.40;65.79;98377.50;5072153;28;20025;-57
2022/08/15 11:11:07;;;;;;;10.50;6.25;;;;;;;23.00;64.31;98373.13;5062965;28;20029;-57
2022/08/15 11:13:33;;;;;;;12.43;6.05;;;;;;;22.99;63.82;98368.81;5039324;28;20108;-57
2022/08/15 11:16:07;;;;;;;10.93;5.63;;;;;;;22.70;63.68;98372.59;5072069;28;20478;-57
2022/08/15 11:18:35;;;;;;;14.10;5.95;;;;;;;23.14;62.64;98374.69;5073071;28;20032;-58
2022/08/15 11:21:14;;;;;;;11.77;5.18;;;;;;;23.67;60.53;98375.38;5072381;28;20467;-57
2022/08/15 11:23:39;;;;;;;12.40;5.60;;;;;;;24.25;58.41;98374.94;5073133;28;20036;-57
2022/08/15 11:26:06;;;;;;;8.70;5.22;;;;;;;24.22;58.94;98381.91;5073260;28;20035;-58
2022/08/15 11:28:32;;;;;;;10.82;4.82;;;;;;;24.03;57.53;98381.81;5075585;28;20040;-57
2022/08/15 11:31:06;;;;;;;10.25;4.68;;;;;;;23.93;58.13;98382.34;5071630;28;20025;-57
2022/08/15 11:33:42;;;;;;;15.45;4.50;;;;;;;24.27;56.74;98389.06;5073274;28;20024;-57
2022/08/15 11:36:18;;;;;;;9.27;4.65;;;;;;;23.69;58.60;98384.03;5071149;28;20031;-57
2022/08/15 11:38:48;;;;;;;8.13;4.28;;;;;;;23.76;58.30;98386.97;5076229;28;20037;-57
2022/08/15 11:41:17;;;;;;;;;;;;;;;23.69;58.33;98384.84;5072494;28;20029;-57
2022/08/15 11:43:43;;;;;;;9.20;4.38;;;;;;;23.89;57.73;98382.25;5076389;28;19927;-58
2022/08/15 11:46:08;;;;;;;6.60;4.35;;;;;;;23.86;57.27;98377.47;5071647;28;20036;-57
2022/08/15 11:48:36;;;;;;;6.63;3.92;;;;;;;23.93;56.78;98387.81;5072824;28;20123;-57
2022/08/15 11:51:10;;;;;;;7.47;3.97;;;;;;;23.75;56.99;98385.41;5062026;28;20671;-56
2022/08/15 11:53:39;;;;;;;8.50;4.00;;;;;;;24.32;55.85;98388.81;5073169;28;20032;-57
2022/08/15 11:56:05;;;;;;;;;;;;;;;24.65;54.58;98388.44;5074852;28;20073;-57
2022/08/15 11:58:35;;;;;;;11.20;4.85;;;;;;;24.74;55.19;98383.56;5072574;28;19916;-57